sensor_id;sensor_type;location;lat;lon;timestamp;P1;durP1;ratioP1;P2;durP2;ratioP2
55224;SDS011;41091;49.400;8.684;2023-03-23T00:02:13;1.70;;;0.90;;
55224;SDS011;41091;49.400;8.684;2023-03-23T00:04:42;2.33;;;1.20;;
55224;SDS011;41091;49.400;8.684;2023-03-23T00:07:07;1.17;;;1.08;;
55224;SDS011;41091;49.400;8.684;2023-03-23T00:09:37;1.90;;;0.85;;
55224;SDS011;41091;49.400;8.684;2023-03-23T00:12:06;1.67;;;1.23;;
55224;SDS011;41091;49.400;8.684;2023-03-23T00:14:34;0.82;;;0.82;;
55224;SDS011;41091;49.400;8.684;2023-03-23T00:17:09;1.33;;;0.90;;
55224;SDS011;41091;49.400;8.684;2023-03-23T00:19:36;6.28;;;0.90;;
55224;SDS011;41091;49.400;8.684;2023-03-23T00:22:10;3.63;;;1.00;;
55224;SDS011;41091;49.400;8.684;2023-03-23T00:24:40;1.42;;;0.70;;
55224;SDS011;41091;49.400;8.684;2023-03-23T00:27:06;2.38;;;0.63;;
55224;SDS011;41091;49.400;8.684;2023-03-23T00:29:33;3.35;;;0.77;;
55224;SDS011;41091;49.400;8.684;2023-03-23T00:31:58;1.70;;;1.20;;
55224;SDS011;41091;49.400;8.684;2023-03-23T00:34:24;0.98;;;0.90;;
55224;SDS011;41091;49.400;8.684;2023-03-23T00:36:53;0.43;;;0.43;;
55224;SDS011;41091;49.400;8.684;2023-03-23T00:39:21;0.60;;;0.60;;
55224;SDS011;41091;49.400;8.684;2023-03-23T00:41:49;1.17;;;0.80;;
55224;SDS011;41091;49.400;8.684;2023-03-23T00:44:15;1.08;;;0.80;;
55224;SDS011;41091;49.400;8.684;2023-03-23T00:46:45;1.45;;;0.95;;
55224;SDS011;41091;49.400;8.684;2023-03-23T00:49:13;0.60;;;0.60;;
55224;SDS011;41091;49.400;8.684;2023-03-23T00:51:43;1.60;;;0.60;;
55224;SDS011;41091;49.400;8.684;2023-03-23T00:54:09;1.08;;;0.60;;
55224;SDS011;41091;49.400;8.684;2023-03-23T00:56:37;1.48;;;1.05;;
55224;SDS011;41091;49.400;8.684;2023-03-23T00:59:04;1.63;;;0.70;;
55224;SDS011;41091;49.400;8.684;2023-03-23T01:01:32;0.55;;;0.55;;
55224;SDS011;41091;49.400;8.684;2023-03-23T01:04:01;1.08;;;0.60;;
55224;SDS011;41091;49.400;8.684;2023-03-23T01:06:29;0.50;;;0.50;;
55224;SDS011;41091;49.400;8.684;2023-03-23T01:09:07;6.65;;;0.77;;
55224;SDS011;41091;49.400;8.684;2023-03-23T01:11:33;6.13;;;0.68;;
55224;SDS011;41091;49.400;8.684;2023-03-23T01:13:59;0.50;;;0.50;;
55224;SDS011;41091;49.400;8.684;2023-03-23T01:16:25;0.60;;;0.60;;
55224;SDS011;41091;49.400;8.684;2023-03-23T01:18:50;0.40;;;0.40;;
55224;SDS011;41091;49.400;8.684;2023-03-23T01:21:19;1.70;;;0.75;;
55224;SDS011;41091;49.400;8.684;2023-03-23T01:23:45;1.65;;;0.47;;
55224;SDS011;41091;49.400;8.684;2023-03-23T01:26:20;2.15;;;0.60;;
55224;SDS011;41091;49.400;8.684;2023-03-23T01:28:51;0.47;;;0.40;;
55224;SDS011;41091;49.400;8.684;2023-03-23T01:31:21;0.47;;;0.47;;
55224;SDS011;41091;49.400;8.684;2023-03-23T01:33:48;0.80;;;0.50;;
55224;SDS011;41091;49.400;8.684;2023-03-23T01:36:20;1.77;;;0.95;;
55224;SDS011;41091;49.400;8.684;2023-03-23T01:38:50;1.65;;;0.80;;
55224;SDS011;41091;49.400;8.684;2023-03-23T01:41:18;0.52;;;0.52;;
55224;SDS011;41091;49.400;8.684;2023-03-23T01:46:22;0.93;;;0.57;;
55224;SDS011;41091;49.400;8.684;2023-03-23T01:48:51;1.58;;;0.77;;
55224;SDS011;41091;49.400;8.684;2023-03-23T01:51:17;1.13;;;0.47;;
55224;SDS011;41091;49.400;8.684;2023-03-23T01:53:50;0.85;;;0.57;;
55224;SDS011;41091;49.400;8.684;2023-03-23T01:56:19;1.30;;;0.80;;
55224;SDS011;41091;49.400;8.684;2023-03-23T01:58:50;0.80;;;0.68;;
55224;SDS011;41091;49.400;8.684;2023-03-23T02:01:16;0.50;;;0.50;;
55224;SDS011;41091;49.400;8.684;2023-03-23T02:03:44;2.00;;;0.85;;
55224;SDS011;41091;49.400;8.684;2023-03-23T02:06:10;0.40;;;0.40;;
55224;SDS011;41091;49.400;8.684;2023-03-23T02:08:38;1.65;;;0.55;;
55224;SDS011;41091;49.400;8.684;2023-03-23T02:11:16;0.60;;;0.60;;
55224;SDS011;41091;49.400;8.684;2023-03-23T02:13:46;0.98;;;0.50;;
55224;SDS011;41091;49.400;8.684;2023-03-23T02:16:25;3.13;;;0.75;;
55224;SDS011;41091;49.400;8.684;2023-03-23T02:21:55;0.70;;;0.60;;
55224;SDS011;41091;49.400;8.684;2023-03-23T02:35:21;2.60;;;0.55;;
55224;SDS011;41091;49.400;8.684;2023-03-23T02:37:53;1.48;;;0.70;;
55224;SDS011;41091;49.400;8.684;2023-03-23T02:40:24;2.05;;;0.68;;
55224;SDS011;41091;49.400;8.684;2023-03-23T02:42:53;1.58;;;0.75;;
55224;SDS011;41091;49.400;8.684;2023-03-23T02:45:21;2.70;;;0.75;;
55224;SDS011;41091;49.400;8.684;2023-03-23T02:47:49;0.60;;;0.50;;
55224;SDS011;41091;49.400;8.684;2023-03-23T02:50:16;3.22;;;0.52;;
55224;SDS011;41091;49.400;8.684;2023-03-23T02:52:45;1.48;;;0.52;;
55224;SDS011;41091;49.400;8.684;2023-03-23T02:55:14;1.90;;;0.60;;
55224;SDS011;41091;49.400;8.684;2023-03-23T02:57:40;5.50;;;0.70;;
55224;SDS011;41091;49.400;8.684;2023-03-23T03:00:07;0.60;;;0.60;;
55224;SDS011;41091;49.400;8.684;2023-03-23T03:02:40;1.23;;;0.70;;
55224;SDS011;41091;49.400;8.684;2023-03-23T03:08:02;0.50;;;0.50;;
55224;SDS011;41091;49.400;8.684;2023-03-23T03:10:55;1.60;;;1.50;;
55224;SDS011;41091;49.400;8.684;2023-03-23T03:20:59;2.92;;;0.80;;
55224;SDS011;41091;49.400;8.684;2023-03-23T03:23:28;3.10;;;0.95;;
55224;SDS011;41091;49.400;8.684;2023-03-23T03:25:53;0.77;;;0.57;;
55224;SDS011;41091;49.400;8.684;2023-03-23T03:28:22;1.40;;;0.80;;
55224;SDS011;41091;49.400;8.684;2023-03-23T03:30:49;2.80;;;0.88;;
55224;SDS011;41091;49.400;8.684;2023-03-23T03:33:21;3.42;;;0.93;;
55224;SDS011;41091;49.400;8.684;2023-03-23T03:35:50;0.98;;;0.70;;
55224;SDS011;41091;49.400;8.684;2023-03-23T03:38:19;2.92;;;0.77;;
55224;SDS011;41091;49.400;8.684;2023-03-23T03:40:45;0.88;;;0.70;;
55224;SDS011;41091;49.400;8.684;2023-03-23T03:43:11;2.33;;;0.77;;
55224;SDS011;41091;49.400;8.684;2023-03-23T03:45:38;1.02;;;0.70;;
55224;SDS011;41091;49.400;8.684;2023-03-23T03:48:04;1.13;;;0.95;;
55224;SDS011;41091;49.400;8.684;2023-03-23T03:50:32;0.88;;;0.88;;
55224;SDS011;41091;49.400;8.684;2023-03-23T03:52:57;0.80;;;0.80;;
55224;SDS011;41091;49.400;8.684;2023-03-23T03:55:23;1.98;;;1.10;;
55224;SDS011;41091;49.400;8.684;2023-03-23T03:57:48;1.45;;;1.35;;
55224;SDS011;41091;49.400;8.684;2023-03-23T04:00:13;0.98;;;0.98;;
55224;SDS011;41091;49.400;8.684;2023-03-23T04:02:49;1.20;;;1.10;;
55224;SDS011;41091;49.400;8.684;2023-03-23T04:05:19;0.93;;;0.93;;
55224;SDS011;41091;49.400;8.684;2023-03-23T04:07:48;1.23;;;1.13;;
55224;SDS011;41091;49.400;8.684;2023-03-23T04:10:16;1.02;;;1.02;;
55224;SDS011;41091;49.400;8.684;2023-03-23T04:12:44;2.25;;;0.90;;
55224;SDS011;41091;49.400;8.684;2023-03-23T04:15:10;1.65;;;1.08;;
55224;SDS011;41091;49.400;8.684;2023-03-23T04:17:40;1.50;;;0.98;;
55224;SDS011;41091;49.400;8.684;2023-03-23T04:20:09;1.73;;;0.95;;
55224;SDS011;41091;49.400;8.684;2023-03-23T04:22:45;1.42;;;0.82;;
55224;SDS011;41091;49.400;8.684;2023-03-23T04:25:16;1.75;;;0.88;;
55224;SDS011;41091;49.400;8.684;2023-03-23T04:27:48;0.75;;;0.75;;
55224;SDS011;41091;49.400;8.684;2023-03-23T04:30:17;1.08;;;0.95;;
55224;SDS011;41091;49.400;8.684;2023-03-23T04:32:44;1.25;;;0.85;;
55224;SDS011;41091;49.400;8.684;2023-03-23T04:35:11;2.08;;;0.90;;
55224;SDS011;41091;49.400;8.684;2023-03-23T04:37:39;1.95;;;0.80;;
55224;SDS011;41091;49.400;8.684;2023-03-23T04:40:06;1.52;;;0.80;;
55224;SDS011;41091;49.400;8.684;2023-03-23T04:42:35;2.38;;;1.00;;
55224;SDS011;41091;49.400;8.684;2023-03-23T04:45:04;3.20;;;1.00;;
55224;SDS011;41091;49.400;8.684;2023-03-23T04:47:32;1.23;;;1.08;;
55224;SDS011;41091;49.400;8.684;2023-03-23T04:49:59;1.00;;;0.90;;
55224;SDS011;41091;49.400;8.684;2023-03-23T04:52:25;3.38;;;1.10;;
55224;SDS011;41091;49.400;8.684;2023-03-23T04:54:53;5.22;;;0.90;;
55224;SDS011;41091;49.400;8.684;2023-03-23T04:57:20;0.60;;;0.60;;
55224;SDS011;41091;49.400;8.684;2023-03-23T04:59:46;1.00;;;0.90;;
55224;SDS011;41091;49.400;8.684;2023-03-23T05:02:12;2.28;;;1.30;;
55224;SDS011;41091;49.400;8.684;2023-03-23T05:04:38;1.40;;;1.17;;
55224;SDS011;41091;49.400;8.684;2023-03-23T05:07:06;1.73;;;1.00;;
55224;SDS011;41091;49.400;8.684;2023-03-23T05:09:34;3.17;;;1.10;;
55224;SDS011;41091;49.400;8.684;2023-03-23T05:12:04;1.70;;;0.88;;
55224;SDS011;41091;49.400;8.684;2023-03-23T05:14:33;0.80;;;0.80;;
55224;SDS011;41091;49.400;8.684;2023-03-23T05:16:58;1.20;;;0.98;;
55224;SDS011;41091;49.400;8.684;2023-03-23T05:19:26;2.00;;;1.30;;
55224;SDS011;41091;49.400;8.684;2023-03-23T05:21:56;1.30;;;0.98;;
55224;SDS011;41091;49.400;8.684;2023-03-23T05:24:27;3.67;;;1.25;;
55224;SDS011;41091;49.400;8.684;2023-03-23T05:26:58;3.13;;;0.88;;
55224;SDS011;41091;49.400;8.684;2023-03-23T05:29:24;1.33;;;1.20;;
55224;SDS011;41091;49.400;8.684;2023-03-23T05:31:52;2.45;;;1.23;;
55224;SDS011;41091;49.400;8.684;2023-03-23T05:34:18;3.53;;;1.30;;
55224;SDS011;41091;49.400;8.684;2023-03-23T05:36:44;2.22;;;1.27;;
55224;SDS011;41091;49.400;8.684;2023-03-23T05:39:10;4.00;;;1.00;;
55224;SDS011;41091;49.400;8.684;2023-03-23T05:41:36;5.68;;;1.42;;
55224;SDS011;41091;49.400;8.684;2023-03-23T05:44:04;1.70;;;1.52;;
55224;SDS011;41091;49.400;8.684;2023-03-23T05:46:32;3.42;;;1.45;;
55224;SDS011;41091;49.400;8.684;2023-03-23T05:48:58;3.03;;;1.90;;
55224;SDS011;41091;49.400;8.684;2023-03-23T05:51:24;2.00;;;1.20;;
55224;SDS011;41091;49.400;8.684;2023-03-23T05:53:52;2.17;;;0.93;;
55224;SDS011;41091;49.400;8.684;2023-03-23T05:56:17;2.30;;;1.35;;
55224;SDS011;41091;49.400;8.684;2023-03-23T05:58:46;1.02;;;1.02;;
55224;SDS011;41091;49.400;8.684;2023-03-23T06:01:11;1.05;;;1.05;;
55224;SDS011;41091;49.400;8.684;2023-03-23T06:03:39;2.80;;;1.50;;
55224;SDS011;41091;49.400;8.684;2023-03-23T06:06:04;3.25;;;1.20;;
55224;SDS011;41091;49.400;8.684;2023-03-23T06:08:33;3.67;;;1.05;;
55224;SDS011;41091;49.400;8.684;2023-03-23T06:10:58;3.00;;;1.48;;
55224;SDS011;41091;49.400;8.684;2023-03-23T06:13:23;1.88;;;1.30;;
55224;SDS011;41091;49.400;8.684;2023-03-23T06:15:54;1.00;;;1.00;;
55224;SDS011;41091;49.400;8.684;2023-03-23T06:18:22;1.27;;;1.00;;
55224;SDS011;41091;49.400;8.684;2023-03-23T06:20:48;1.77;;;1.10;;
55224;SDS011;41091;49.400;8.684;2023-03-23T06:23:13;1.00;;;1.00;;
55224;SDS011;41091;49.400;8.684;2023-03-23T06:25:39;2.38;;;1.15;;
55224;SDS011;41091;49.400;8.684;2023-03-23T06:28:04;0.90;;;0.90;;
55224;SDS011;41091;49.400;8.684;2023-03-23T06:30:30;2.50;;;1.48;;
55224;SDS011;41091;49.400;8.684;2023-03-23T06:32:58;1.05;;;1.05;;
55224;SDS011;41091;49.400;8.684;2023-03-23T06:35:24;1.42;;;0.88;;
55224;SDS011;41091;49.400;8.684;2023-03-23T06:37:51;1.08;;;0.88;;
55224;SDS011;41091;49.400;8.684;2023-03-23T06:40:18;8.45;;;1.10;;
55224;SDS011;41091;49.400;8.684;2023-03-23T06:42:43;5.90;;;1.30;;
55224;SDS011;41091;49.400;8.684;2023-03-23T06:45:09;6.10;;;1.10;;
55224;SDS011;41091;49.400;8.684;2023-03-23T06:47:37;4.20;;;1.98;;
55224;SDS011;41091;49.400;8.684;2023-03-23T06:50:05;1.35;;;1.25;;
55224;SDS011;41091;49.400;8.684;2023-03-23T06:52:31;5.22;;;1.17;;
55224;SDS011;41091;49.400;8.684;2023-03-23T06:54:56;1.10;;;0.80;;
55224;SDS011;41091;49.400;8.684;2023-03-23T06:57:24;2.72;;;1.17;;
55224;SDS011;41091;49.400;8.684;2023-03-23T06:59:50;0.82;;;0.82;;
55224;SDS011;41091;49.400;8.684;2023-03-23T07:02:17;1.50;;;0.82;;
55224;SDS011;41091;49.400;8.684;2023-03-23T07:04:43;8.57;;;1.08;;
55224;SDS011;41091;49.400;8.684;2023-03-23T07:07:11;3.47;;;1.10;;
55224;SDS011;41091;49.400;8.684;2023-03-23T07:09:39;1.05;;;1.00;;
55224;SDS011;41091;49.400;8.684;2023-03-23T07:12:05;0.90;;;0.90;;
55224;SDS011;41091;49.400;8.684;2023-03-23T07:14:32;1.38;;;1.27;;
55224;SDS011;41091;49.400;8.684;2023-03-23T07:16:57;1.20;;;1.10;;
55224;SDS011;41091;49.400;8.684;2023-03-23T07:19:26;2.42;;;0.70;;
55224;SDS011;41091;49.400;8.684;2023-03-23T07:21:53;6.88;;;0.88;;
55224;SDS011;41091;49.400;8.684;2023-03-23T07:24:19;0.73;;;0.73;;
55224;SDS011;41091;49.400;8.684;2023-03-23T07:26:44;1.52;;;1.33;;
55224;SDS011;41091;49.400;8.684;2023-03-23T07:29:10;1.23;;;0.90;;
55224;SDS011;41091;49.400;8.684;2023-03-23T07:31:38;2.60;;;1.52;;
55224;SDS011;41091;49.400;8.684;2023-03-23T07:34:05;4.72;;;1.13;;
55224;SDS011;41091;49.400;8.684;2023-03-23T07:36:31;1.63;;;1.52;;
55224;SDS011;41091;49.400;8.684;2023-03-23T07:39:02;15.90;;;8.48;;
55224;SDS011;41091;49.400;8.684;2023-03-23T07:41:31;11.18;;;6.40;;
55224;SDS011;41091;49.400;8.684;2023-03-23T07:43:57;7.85;;;3.53;;
55224;SDS011;41091;49.400;8.684;2023-03-23T07:46:25;2.90;;;2.13;;
55224;SDS011;41091;49.400;8.684;2023-03-23T07:48:50;2.72;;;1.30;;
55224;SDS011;41091;49.400;8.684;2023-03-23T07:51:18;0.80;;;0.80;;
55224;SDS011;41091;49.400;8.684;2023-03-23T07:56:11;2.90;;;0.80;;
55224;SDS011;41091;49.400;8.684;2023-03-23T07:58:42;0.85;;;0.55;;
55224;SDS011;41091;49.400;8.684;2023-03-23T08:01:09;0.82;;;0.82;;
55224;SDS011;41091;49.400;8.684;2023-03-23T08:03:37;1.88;;;0.73;;
55224;SDS011;41091;49.400;8.684;2023-03-23T08:06:05;2.58;;;0.70;;
55224;SDS011;41091;49.400;8.684;2023-03-23T08:08:31;2.00;;;0.93;;
55224;SDS011;41091;49.400;8.684;2023-03-23T08:11:02;1.23;;;1.08;;
55224;SDS011;41091;49.400;8.684;2023-03-23T08:13:27;3.25;;;0.52;;
55224;SDS011;41091;49.400;8.684;2023-03-23T08:15:55;1.05;;;0.63;;
55224;SDS011;41091;49.400;8.684;2023-03-23T08:18:21;1.02;;;0.60;;
55224;SDS011;41091;49.400;8.684;2023-03-23T08:20:47;1.83;;;0.77;;
55224;SDS011;41091;49.400;8.684;2023-03-23T08:23:14;2.03;;;0.65;;
55224;SDS011;41091;49.400;8.684;2023-03-23T08:25:43;5.70;;;0.65;;
55224;SDS011;41091;49.400;8.684;2023-03-23T08:28:08;2.45;;;0.98;;
55224;SDS011;41091;49.400;8.684;2023-03-23T08:30:34;3.05;;;0.70;;
55224;SDS011;41091;49.400;8.684;2023-03-23T08:33:01;3.67;;;0.73;;
55224;SDS011;41091;49.400;8.684;2023-03-23T08:35:30;2.50;;;0.70;;
55224;SDS011;41091;49.400;8.684;2023-03-23T08:37:58;1.52;;;0.68;;
55224;SDS011;41091;49.400;8.684;2023-03-23T08:42:52;2.83;;;0.80;;
55224;SDS011;41091;49.400;8.684;2023-03-23T08:45:21;1.05;;;1.05;;
55224;SDS011;41091;49.400;8.684;2023-03-23T08:47:48;1.13;;;0.85;;
55224;SDS011;41091;49.400;8.684;2023-03-23T08:50:17;0.70;;;0.70;;
55224;SDS011;41091;49.400;8.684;2023-03-23T08:52:46;2.17;;;0.77;;
55224;SDS011;41091;49.400;8.684;2023-03-23T08:55:12;0.98;;;0.77;;
55224;SDS011;41091;49.400;8.684;2023-03-23T08:57:40;0.77;;;0.65;;
55224;SDS011;41091;49.400;8.684;2023-03-23T09:00:10;1.50;;;1.02;;
55224;SDS011;41091;49.400;8.684;2023-03-23T09:02:42;1.73;;;0.70;;
55224;SDS011;41091;49.400;8.684;2023-03-23T09:05:15;1.15;;;0.70;;
55224;SDS011;41091;49.400;8.684;2023-03-23T09:07:42;1.13;;;0.70;;
55224;SDS011;41091;49.400;8.684;2023-03-23T09:10:15;2.53;;;1.02;;
55224;SDS011;41091;49.400;8.684;2023-03-23T09:12:44;1.67;;;0.80;;
55224;SDS011;41091;49.400;8.684;2023-03-23T09:15:11;1.00;;;0.88;;
55224;SDS011;41091;49.400;8.684;2023-03-23T09:17:39;2.08;;;0.52;;
55224;SDS011;41091;49.400;8.684;2023-03-23T09:20:06;0.60;;;0.60;;
55224;SDS011;41091;49.400;8.684;2023-03-23T09:25:13;2.88;;;1.05;;
55224;SDS011;41091;49.400;8.684;2023-03-23T09:27:41;1.17;;;0.80;;
55224;SDS011;41091;49.400;8.684;2023-03-23T09:30:09;2.95;;;0.98;;
55224;SDS011;41091;49.400;8.684;2023-03-23T09:32:39;1.33;;;0.85;;
55224;SDS011;41091;49.400;8.684;2023-03-23T09:35:05;3.78;;;1.00;;
55224;SDS011;41091;49.400;8.684;2023-03-23T09:37:37;2.83;;;1.15;;
55224;SDS011;41091;49.400;8.684;2023-03-23T09:40:04;1.85;;;1.35;;
55224;SDS011;41091;49.400;8.684;2023-03-23T09:42:37;3.40;;;0.75;;
55224;SDS011;41091;49.400;8.684;2023-03-23T09:50:36;0.70;;;0.52;;
55224;SDS011;41091;49.400;8.684;2023-03-23T09:53:04;0.60;;;0.60;;
55224;SDS011;41091;49.400;8.684;2023-03-23T09:55:36;3.55;;;0.77;;
55224;SDS011;41091;49.400;8.684;2023-03-23T10:03:41;3.05;;;0.70;;
55224;SDS011;41091;49.400;8.684;2023-03-23T10:06:12;0.95;;;0.60;;
55224;SDS011;41091;49.400;8.684;2023-03-23T10:08:43;0.83;;;0.63;;
55224;SDS011;41091;49.400;8.684;2023-03-23T10:19:52;1.70;;;1.02;;
55224;SDS011;41091;49.400;8.684;2023-03-23T10:22:22;2.95;;;0.70;;
55224;SDS011;41091;49.400;8.684;2023-03-23T10:27:41;2.28;;;1.00;;
55224;SDS011;41091;49.400;8.684;2023-03-23T10:35:27;1.35;;;0.80;;
55224;SDS011;41091;49.400;8.684;2023-03-23T10:38:00;3.35;;;0.70;;
55224;SDS011;41091;49.400;8.684;2023-03-23T10:40:28;1.20;;;0.80;;
55224;SDS011;41091;49.400;8.684;2023-03-23T10:42:57;7.70;;;1.25;;
55224;SDS011;41091;49.400;8.684;2023-03-23T10:45:26;2.15;;;0.80;;
55224;SDS011;41091;49.400;8.684;2023-03-23T10:50:32;1.02;;;0.70;;
55224;SDS011;41091;49.400;8.684;2023-03-23T10:53:00;1.00;;;0.90;;
55224;SDS011;41091;49.400;8.684;2023-03-23T10:55:39;0.60;;;0.60;;
55224;SDS011;41091;49.400;8.684;2023-03-23T10:58:10;0.73;;;0.63;;
55224;SDS011;41091;49.400;8.684;2023-03-23T11:00:41;1.38;;;0.68;;
55224;SDS011;41091;49.400;8.684;2023-03-23T11:05:48;0.60;;;0.60;;
55224;SDS011;41091;49.400;8.684;2023-03-23T11:08:22;1.70;;;0.55;;
55224;SDS011;41091;49.400;8.684;2023-03-23T11:13:28;0.90;;;0.75;;
55224;SDS011;41091;49.400;8.684;2023-03-23T11:15:55;2.40;;;0.70;;
55224;SDS011;41091;49.400;8.684;2023-03-23T11:28:31;1.30;;;0.65;;
55224;SDS011;41091;49.400;8.684;2023-03-23T11:30:59;1.55;;;0.70;;
55224;SDS011;41091;49.400;8.684;2023-03-23T11:33:30;0.80;;;0.52;;
55224;SDS011;41091;49.400;8.684;2023-03-23T11:36:01;0.80;;;0.80;;
55224;SDS011;41091;49.400;8.684;2023-03-23T11:38:27;1.85;;;0.68;;
55224;SDS011;41091;49.400;8.684;2023-03-23T11:40:53;9.00;;;2.03;;
55224;SDS011;41091;49.400;8.684;2023-03-23T11:43:22;1.80;;;0.80;;
55224;SDS011;41091;49.400;8.684;2023-03-23T11:56:31;1.58;;;1.02;;
55224;SDS011;41091;49.400;8.684;2023-03-23T11:59:02;1.27;;;1.00;;
55224;SDS011;41091;49.400;8.684;2023-03-23T12:01:48;0.80;;;0.63;;
55224;SDS011;41091;49.400;8.684;2023-03-23T12:07:21;2.38;;;1.23;;
55224;SDS011;41091;49.400;8.684;2023-03-23T12:10:04;0.95;;;0.73;;
55224;SDS011;41091;49.400;8.684;2023-03-23T12:31:07;0.88;;;0.88;;
55224;SDS011;41091;49.400;8.684;2023-03-23T12:42:24;1.23;;;0.80;;
55224;SDS011;41091;49.400;8.684;2023-03-23T12:45:21;1.52;;;1.17;;
55224;SDS011;41091;49.400;8.684;2023-03-23T12:48:05;3.08;;;1.20;;
55224;SDS011;41091;49.400;8.684;2023-03-23T12:50:44;2.20;;;1.10;;
55224;SDS011;41091;49.400;8.684;2023-03-23T12:53:23;1.08;;;1.00;;
55224;SDS011;41091;49.400;8.684;2023-03-23T12:56:06;3.95;;;1.25;;
55224;SDS011;41091;49.400;8.684;2023-03-23T12:58:34;3.05;;;1.10;;
55224;SDS011;41091;49.400;8.684;2023-03-23T13:03:46;4.93;;;0.98;;
55224;SDS011;41091;49.400;8.684;2023-03-23T13:06:33;2.65;;;0.88;;
55224;SDS011;41091;49.400;8.684;2023-03-23T13:12:08;0.80;;;0.80;;
55224;SDS011;41091;49.400;8.684;2023-03-23T13:14:46;3.25;;;1.02;;
55224;SDS011;41091;49.400;8.684;2023-03-23T13:23:05;0.90;;;0.90;;
55224;SDS011;41091;49.400;8.684;2023-03-23T13:28:28;1.92;;;1.00;;
55224;SDS011;41091;49.400;8.684;2023-03-23T13:30:59;1.60;;;0.85;;
55224;SDS011;41091;49.400;8.684;2023-03-23T13:33:35;3.90;;;1.15;;
55224;SDS011;41091;49.400;8.684;2023-03-23T13:36:02;3.40;;;1.25;;
55224;SDS011;41091;49.400;8.684;2023-03-23T13:38:38;1.98;;;1.13;;
55224;SDS011;41091;49.400;8.684;2023-03-23T13:41:11;2.05;;;0.95;;
55224;SDS011;41091;49.400;8.684;2023-03-23T13:43:39;1.20;;;1.10;;
55224;SDS011;41091;49.400;8.684;2023-03-23T13:48:44;4.00;;;1.33;;
55224;SDS011;41091;49.400;8.684;2023-03-23T13:51:27;9.82;;;1.33;;
55224;SDS011;41091;49.400;8.684;2023-03-23T13:54:13;2.25;;;1.17;;
55224;SDS011;41091;49.400;8.684;2023-03-23T13:56:52;2.50;;;0.75;;
55224;SDS011;41091;49.400;8.684;2023-03-23T14:01:52;1.08;;;0.98;;
55224;SDS011;41091;49.400;8.684;2023-03-23T14:04:18;1.08;;;0.98;;
55224;SDS011;41091;49.400;8.684;2023-03-23T14:06:45;2.55;;;1.27;;
55224;SDS011;41091;49.400;8.684;2023-03-23T14:09:14;1.02;;;1.02;;
55224;SDS011;41091;49.400;8.684;2023-03-23T14:11:46;3.50;;;1.03;;
55224;SDS011;41091;49.400;8.684;2023-03-23T14:14:20;1.20;;;1.10;;
55224;SDS011;41091;49.400;8.684;2023-03-23T14:16:49;3.58;;;1.10;;
55224;SDS011;41091;49.400;8.684;2023-03-23T14:19:21;2.63;;;0.80;;
55224;SDS011;41091;49.400;8.684;2023-03-23T14:21:49;0.60;;;0.60;;
55224;SDS011;41091;49.400;8.684;2023-03-23T14:27:08;2.72;;;1.67;;
55224;SDS011;41091;49.400;8.684;2023-03-23T14:29:36;7.18;;;2.22;;
55224;SDS011;41091;49.400;8.684;2023-03-23T14:32:01;2.67;;;1.60;;
55224;SDS011;41091;49.400;8.684;2023-03-23T14:34:29;1.77;;;1.65;;
55224;SDS011;41091;49.400;8.684;2023-03-23T14:36:56;3.15;;;1.70;;
55224;SDS011;41091;49.400;8.684;2023-03-23T14:39:29;2.22;;;2.03;;
55224;SDS011;41091;49.400;8.684;2023-03-23T14:42:03;3.00;;;1.70;;
55224;SDS011;41091;49.400;8.684;2023-03-23T14:44:34;2.22;;;1.30;;
55224;SDS011;41091;49.400;8.684;2023-03-23T14:47:06;2.83;;;1.50;;
55224;SDS011;41091;49.400;8.684;2023-03-23T14:49:36;1.80;;;1.45;;
55224;SDS011;41091;49.400;8.684;2023-03-23T14:52:13;2.38;;;0.80;;
55224;SDS011;41091;49.400;8.684;2023-03-23T14:54:42;1.50;;;0.88;;
55224;SDS011;41091;49.400;8.684;2023-03-23T14:57:11;1.20;;;0.90;;
55224;SDS011;41091;49.400;8.684;2023-03-23T14:59:41;4.90;;;1.35;;
55224;SDS011;41091;49.400;8.684;2023-03-23T15:02:10;1.38;;;1.25;;
55224;SDS011;41091;49.400;8.684;2023-03-23T15:04:42;2.45;;;1.08;;
55224;SDS011;41091;49.400;8.684;2023-03-23T15:07:11;1.63;;;1.40;;
55224;SDS011;41091;49.400;8.684;2023-03-23T15:09:42;1.60;;;1.50;;
55224;SDS011;41091;49.400;8.684;2023-03-23T15:12:11;2.35;;;1.67;;
55224;SDS011;41091;49.400;8.684;2023-03-23T15:14:50;2.97;;;2.08;;
55224;SDS011;41091;49.400;8.684;2023-03-23T15:17:21;1.38;;;1.20;;
55224;SDS011;41091;49.400;8.684;2023-03-23T15:19:48;1.95;;;1.00;;
55224;SDS011;41091;49.400;8.684;2023-03-23T15:22:20;0.88;;;0.88;;
55224;SDS011;41091;49.400;8.684;2023-03-23T15:24:50;1.55;;;0.68;;
55224;SDS011;41091;49.400;8.684;2023-03-23T15:27:33;2.72;;;1.60;;
55224;SDS011;41091;49.400;8.684;2023-03-23T15:30:00;3.58;;;1.63;;
55224;SDS011;41091;49.400;8.684;2023-03-23T15:32:38;4.05;;;1.77;;
55224;SDS011;41091;49.400;8.684;2023-03-23T15:35:20;1.85;;;1.30;;
55224;SDS011;41091;49.400;8.684;2023-03-23T15:37:51;3.80;;;1.20;;
55224;SDS011;41091;49.400;8.684;2023-03-23T15:40:20;2.63;;;1.35;;
55224;SDS011;41091;49.400;8.684;2023-03-23T15:42:47;0.80;;;0.80;;
55224;SDS011;41091;49.400;8.684;2023-03-23T15:47:44;3.90;;;1.08;;
55224;SDS011;41091;49.400;8.684;2023-03-23T15:50:16;7.20;;;1.60;;
55224;SDS011;41091;49.400;8.684;2023-03-23T15:53:36;2.05;;;1.40;;
55224;SDS011;41091;49.400;8.684;2023-03-23T15:56:02;1.27;;;1.08;;
55224;SDS011;41091;49.400;8.684;2023-03-23T15:58:29;1.20;;;1.10;;
55224;SDS011;41091;49.400;8.684;2023-03-23T16:00:55;2.38;;;1.17;;
55224;SDS011;41091;49.400;8.684;2023-03-23T16:03:28;1.17;;;0.98;;
55224;SDS011;41091;49.400;8.684;2023-03-23T16:06:05;2.28;;;1.35;;
55224;SDS011;41091;49.400;8.684;2023-03-23T16:08:35;1.08;;;1.00;;
55224;SDS011;41091;49.400;8.684;2023-03-23T16:11:06;1.52;;;1.08;;
55224;SDS011;41091;49.400;8.684;2023-03-23T16:13:33;5.70;;;1.00;;
55224;SDS011;41091;49.400;8.684;2023-03-23T16:15:58;1.08;;;0.80;;
55224;SDS011;41091;49.400;8.684;2023-03-23T16:18:28;1.63;;;1.30;;
55224;SDS011;41091;49.400;8.684;2023-03-23T16:20:53;2.15;;;1.20;;
55224;SDS011;41091;49.400;8.684;2023-03-23T16:23:18;3.58;;;0.95;;
55224;SDS011;41091;49.400;8.684;2023-03-23T16:25:44;1.23;;;1.13;;
55224;SDS011;41091;49.400;8.684;2023-03-23T16:28:13;1.35;;;1.00;;
55224;SDS011;41091;49.400;8.684;2023-03-23T16:30:39;1.92;;;1.20;;
55224;SDS011;41091;49.400;8.684;2023-03-23T16:33:04;0.80;;;0.80;;
55224;SDS011;41091;49.400;8.684;2023-03-23T16:35:32;8.55;;;1.33;;
55224;SDS011;41091;49.400;8.684;2023-03-23T16:38:00;1.05;;;0.82;;
55224;SDS011;41091;49.400;8.684;2023-03-23T16:40:26;1.90;;;0.90;;
55224;SDS011;41091;49.400;8.684;2023-03-23T16:42:51;1.67;;;1.17;;
55224;SDS011;41091;49.400;8.684;2023-03-23T16:45:20;0.80;;;0.80;;
55224;SDS011;41091;49.400;8.684;2023-03-23T16:47:48;4.43;;;1.27;;
55224;SDS011;41091;49.400;8.684;2023-03-23T16:50:18;1.38;;;1.15;;
55224;SDS011;41091;49.400;8.684;2023-03-23T16:52:45;1.45;;;1.35;;
55224;SDS011;41091;49.400;8.684;2023-03-23T16:55:11;5.40;;;1.10;;
55224;SDS011;41091;49.400;8.684;2023-03-23T16:57:38;3.70;;;1.13;;
55224;SDS011;41091;49.400;8.684;2023-03-23T17:00:05;2.00;;;1.10;;
55224;SDS011;41091;49.400;8.684;2023-03-23T17:02:32;1.98;;;1.27;;
55224;SDS011;41091;49.400;8.684;2023-03-23T17:04:58;3.15;;;0.82;;
55224;SDS011;41091;49.400;8.684;2023-03-23T17:07:26;1.85;;;1.38;;
55224;SDS011;41091;49.400;8.684;2023-03-23T17:09:52;1.98;;;1.35;;
55224;SDS011;41091;49.400;8.684;2023-03-23T17:12:20;1.95;;;1.00;;
55224;SDS011;41091;49.400;8.684;2023-03-23T17:17:15;1.48;;;1.10;;
55224;SDS011;41091;49.400;8.684;2023-03-23T17:19:40;8.27;;;1.13;;
55224;SDS011;41091;49.400;8.684;2023-03-23T17:22:08;1.00;;;1.00;;
55224;SDS011;41091;49.400;8.684;2023-03-23T17:24:34;1.40;;;1.25;;
55224;SDS011;41091;49.400;8.684;2023-03-23T17:27:02;2.45;;;2.30;;
55224;SDS011;41091;49.400;8.684;2023-03-23T17:29:27;3.22;;;1.70;;